Time;durP1;ratioP1;P1;durP2;ratioP2;P2;SDS_P1;SDS_P2;PMS_P1;PMS_P2;Temp;Humidity;BMP_temperature;BMP_pressure;BME280_temperature;BME280_humidity;BME280_pressure;Samples;Min_cycle;Max_cycle;Signal;HPM_P1;HPM_P2
2022/11/08 00:01:59;;;;;;;24.75;3.95;;;;;;;-144.40;100.00;60209.53;4877329;29;20056;-94
2022/11/08 00:04:25;;;;;;;32.90;4.38;;;;;;;-144.40;100.00;60209.53;4856168;29;20065;-92
2022/11/08 00:15:07;;;;;;;34.13;6.32;;;;;;;-144.40;100.00;60209.53;4860655;29;20093;-95
2022/11/08 00:17:32;;;;;;;37.97;5.70;;;;;;;-144.40;100.00;60209.53;4860252;29;20069;-94
2022/11/08 00:19:58;;;;;;;31.85;4.80;;;;;;;-144.40;100.00;60209.53;4860344;29;20412;-94
2022/11/08 00:22:24;;;;;;;103.43;8.30;;;;;;;-144.40;100.00;60209.53;4856564;29;20048;-94
2022/11/08 00:24:53;;;;;;;43.20;7.57;;;;;;;-144.40;100.00;60209.53;4850857;29;20033;-94
2022/11/08 00:27:21;;;;;;;37.33;6.25;;;;;;;-144.40;100.00;60209.53;4859925;29;20416;-95
2022/11/08 00:29:46;;;;;;;29.27;6.13;;;;;;;-144.40;100.00;60209.53;4859861;29;20056;-93
2022/11/08 00:32:20;;;;;;;53.60;7.90;;;;;;;-144.40;100.00;60209.53;4859813;29;20493;-95
2022/11/08 00:34:47;;;;;;;36.65;8.00;;;;;;;-144.40;100.00;60209.53;4859376;29;20384;-93
2022/11/08 00:37:13;;;;;;;35.35;6.53;;;;;;;-144.40;100.00;60209.53;4859470;29;20029;-93
2022/11/08 00:39:40;;;;;;;30.50;5.40;;;;;;;-144.40;100.00;60209.53;4857931;29;20120;-94
2022/11/08 00:42:05;;;;;;;36.50;5.85;;;;;;;-144.40;100.00;60209.53;4857777;29;20034;-92
2022/11/08 00:44:31;;;;;;;33.38;5.63;;;;;;;-144.40;100.00;60209.53;4859016;29;20044;-93
2022/11/08 00:46:56;;;;;;;28.77;4.90;;;;;;;-144.40;100.00;60209.53;4860184;29;20036;-93
2022/11/08 00:49:22;;;;;;;45.50;6.07;;;;;;;-144.40;100.00;60209.53;4859301;29;20036;-94
2022/11/08 00:51:48;;;;;;;46.20;4.85;;;;;;;-144.40;100.00;60209.53;4847514;29;20037;-93
2022/11/08 00:54:16;;;;;;;45.45;6.93;;;;;;;-144.40;100.00;60209.53;4859207;29;20030;-94
2022/11/08 00:56:42;;;;;;;31.40;5.32;;;;;;;-144.40;100.00;60209.53;4858751;29;20030;-95
2022/11/08 00:59:12;;;;;;;29.90;4.93;;;;;;;-144.40;100.00;60209.53;4859976;29;20045;-95
2022/11/08 01:01:38;;;;;;;28.80;4.95;;;;;;;-144.40;100.00;60209.53;4860474;29;20036;-94
2022/11/08 01:04:04;;;;;;;38.75;5.32;;;;;;;-144.40;100.00;60209.53;4859953;29;20029;-95
2022/11/08 01:06:30;;;;;;;28.33;5.32;;;;;;;-144.40;100.00;60209.53;4860944;29;20037;-94
2022/11/08 01:08:56;;;;;;;45.15;7.57;;;;;;;-144.40;100.00;60209.53;4861838;29;20033;-95
2022/11/08 01:11:24;;;;;;;22.48;4.20;;;;;;;-144.40;100.00;60209.53;4858315;29;20057;-95
2022/11/08 01:13:50;;;;;;;26.42;4.13;;;;;;;-144.40;100.00;60209.53;4866085;29;20029;-95
2022/11/08 01:16:22;;;;;;;25.02;4.07;;;;;;;-144.40;100.00;60209.53;4865704;29;20025;-94
2022/11/08 01:18:49;;;;;;;7.82;1.58;;;;;;;-144.40;100.00;60209.53;4865179;29;20025;-94
2022/11/08 01:21:15;;;;;;;7.60;1.23;;;;;;;-144.40;100.00;60209.53;4865451;29;20038;-96
2022/11/08 01:23:42;;;;;;;4.38;0.63;;;;;;;-144.40;100.00;60209.53;4864304;29;20029;-95
2022/11/08 01:26:18;;;;;;;5.57;0.60;;;;;;;-144.40;100.00;60209.53;4864704;29;20034;-95
2022/11/08 01:28:45;;;;;;;2.65;0.60;;;;;;;-144.40;100.00;60209.53;4864797;29;20488;-95
2022/11/08 01:31:13;;;;;;;1.95;0.40;;;;;;;-144.40;100.00;60209.53;4865063;29;20056;-94
2022/11/08 01:33:39;;;;;;;4.10;0.50;;;;;;;-144.40;100.00;60209.53;4865897;29;20503;-94
2022/11/08 01:36:06;;;;;;;2.47;0.60;;;;;;;-144.40;100.00;60209.53;4867009;29;20030;-93
2022/11/08 01:38:32;;;;;;;7.72;1.13;;;;;;;-144.40;100.00;60209.53;4864592;29;20067;-94
2022/11/08 01:40:57;;;;;;;6.78;0.60;;;;;;;-144.40;100.00;60209.53;4864022;29;20030;-95
2022/11/08 01:43:29;;;;;;;3.53;0.63;;;;;;;-144.40;100.00;60209.53;4866560;29;20129;-94
2022/11/08 01:46:17;;;;;;;1.23;0.30;;;;;;;-144.40;100.00;60209.53;4865291;29;20069;-94
2022/11/08 01:48:58;;;;;;;1.70;0.50;;;;;;;-144.40;100.00;60209.53;4866180;29;20041;-95
2022/11/08 01:51:29;;;;;;;0.70;0.23;;;;;;;-144.40;100.00;60209.53;4866919;29;20480;-94
2022/11/08 01:53:57;;;;;;;1.17;0.20;;;;;;;-144.40;100.00;60209.53;4865965;29;20272;-95
2022/11/08 01:56:22;;;;;;;1.85;0.30;;;;;;;-144.40;100.00;60209.53;4864619;29;20066;-94
2022/11/08 01:58:50;;;;;;;2.15;0.50;;;;;;;-144.40;100.00;60209.53;4865440;29;20033;-93
2022/11/08 02:01:16;;;;;;;1.05;0.22;;;;;;;-144.40;100.00;60209.53;4864865;29;20029;-92
2022/11/08 02:03:42;;;;;;;0.57;0.30;;;;;;;-144.40;100.00;60209.53;4866208;29;20033;-93
2022/11/08 02:06:08;;;;;;;3.22;0.30;;;;;;;-144.40;100.00;60209.53;4865732;29;20029;-93
2022/11/08 02:08:38;;;;;;;1.85;0.20;;;;;;;-144.40;100.00;60209.53;4863987;29;20069;-94
2022/11/08 02:11:05;;;;;;;1.58;0.20;;;;;;;-144.40;100.00;60209.53;4862006;29;20103;-93
2022/11/08 02:13:33;;;;;;;1.27;0.30;;;;;;;-144.40;100.00;60209.53;4847801;29;20026;-95
2022/11/08 02:15:59;;;;;;;2.03;0.47;;;;;;;-144.40;100.00;60209.53;4846251;29;20374;-94
2022/11/08 02:18:30;;;;;;;2.15;0.40;;;;;;;-144.40;100.00;60209.53;4846553;29;20030;-94
2022/11/08 02:21:05;;;;;;;0.93;0.20;;;;;;;-144.40;100.00;60209.53;4843979;29;20038;-93
2022/11/08 02:23:46;;;;;;;8.27;0.38;;;;;;;-144.40;100.00;60209.53;4845001;29;20033;-93
2022/11/08 02:26:12;;;;;;;5.40;0.35;;;;;;;-144.40;100.00;60209.53;4861669;29;20026;-93
2022/11/08 02:28:43;;;;;;;0.82;0.30;;;;;;;-144.40;100.00;60209.53;4861469;29;20029;-93
2022/11/08 02:31:10;;;;;;;6.05;0.30;;;;;;;-144.40;100.00;60209.53;4861665;29;20034;-93
2022/11/08 02:33:36;;;;;;;1.63;0.25;;;;;;;-144.40;100.00;60209.53;4861688;29;20400;-91
2022/11/08 02:36:03;;;;;;;5.93;0.30;;;;;;;-144.40;100.00;60209.53;4862002;29;20126;-94
2022/11/08 02:38:30;;;;;;;2.92;0.40;;;;;;;-144.40;100.00;60209.53;4860131;29;20370;-94
2022/11/08 02:40:56;;;;;;;1.23;0.70;;;;;;;-144.40;100.00;60209.53;4861779;29;20157;-94
2022/11/08 02:43:23;;;;;;;3.72;0.52;;;;;;;-144.40;100.00;60209.53;4861838;29;20025;-94
2022/11/08 02:45:50;;;;;;;0.75;0.40;;;;;;;-144.40;100.00;60209.53;4861576;29;20422;-93
2022/11/08 02:48:17;;;;;;;1.30;0.47;;;;;;;-144.40;100.00;60209.53;4861703;29;20034;-93
2022/11/08 02:50:43;;;;;;;1.15;0.30;;;;;;;-144.40;100.00;60209.53;4861545;29;20105;-94
2022/11/08 02:53:08;;;;;;;0.80;0.20;;;;;;;-144.40;100.00;60209.53;4861817;29;20034;-95
2022/11/08 02:55:34;;;;;;;1.38;0.30;;;;;;;-144.40;100.00;60209.53;4861747;29;20033;-94
2022/11/08 02:58:01;;;;;;;1.50;0.40;;;;;;;-144.40;100.00;60209.53;4862033;29;20029;-93
2022/11/08 03:00:27;;;;;;;1.30;0.28;;;;;;;-144.40;100.00;60209.53;4863689;29;20117;-94
2022/11/08 03:02:53;;;;;;;0.88;0.20;;;;;;;-144.40;100.00;60209.53;4862075;29;20034;-95
2022/11/08 03:05:19;;;;;;;1.75;0.75;;;;;;;-144.40;100.00;60209.53;4859389;29;20093;-94
2022/11/08 03:07:45;;;;;;;1.42;0.50;;;;;;;-144.40;100.00;60209.53;4861364;29;20041;-93
2022/11/08 03:10:12;;;;;;;1.25;0.57;;;;;;;-144.40;100.00;60209.53;4862500;29;20029;-93
2022/11/08 03:12:38;;;;;;;2.97;1.10;;;;;;;-144.40;100.00;60209.53;4861691;29;20045;-93
2022/11/08 03:15:05;;;;;;;2.33;1.00;;;;;;;-144.40;100.00;60209.53;4861387;29;20033;-94
2022/11/08 03:17:31;;;;;;;3.90;1.23;;;;;;;-144.40;100.00;60209.53;4861366;29;20098;-94
2022/11/08 03:19:56;;;;;;;3.83;0.70;;;;;;;-144.40;100.00;60209.53;4861063;29;20565;-93
2022/11/08 03:22:22;;;;;;;7.68;0.70;;;;;;;-144.40;100.00;60209.53;4855133;29;20129;-94
2022/11/08 03:24:48;;;;;;;2.00;0.60;;;;;;;-144.40;100.00;60209.53;4842604;29;20057;-94
2022/11/08 03:27:14;;;;;;;6.05;0.43;;;;;;;-144.40;100.00;60209.53;4843069;29;20032;-94
2022/11/08 03:29:40;;;;;;;3.88;0.30;;;;;;;-144.40;100.00;60209.53;4842928;29;20137;-93
2022/11/08 03:32:06;;;;;;;8.73;1.75;;;;;;;-144.40;100.00;60209.53;4841867;29;20121;-93
2022/11/08 03:34:31;;;;;;;8.70;1.02;;;;;;;-144.40;100.00;60209.53;4842278;29;20121;-93
2022/11/08 03:36:57;;;;;;;14.27;1.80;;;;;;;-144.40;100.00;60209.53;4843009;29;20030;-93
2022/11/08 03:39:22;;;;;;;15.52;1.75;;;;;;;-144.40;100.00;60209.53;4849939;29;20033;-94
2022/11/08 03:41:48;;;;;;;11.90;1.73;;;;;;;-144.40;100.00;60209.53;4860948;29;20058;-93
2022/11/08 03:44:13;;;;;;;21.63;2.97;;;;;;;-144.40;100.00;60209.53;4861046;29;20033;-93
2022/11/08 03:46:39;;;;;;;18.02;2.20;;;;;;;-144.40;100.00;60209.53;4860125;29;20029;-94
2022/11/08 03:49:04;;;;;;;20.92;2.92;;;;;;;-144.40;100.00;60209.53;4860465;29;20507;-93
2022/11/08 03:51:30;;;;;;;21.70;3.75;;;;;;;-144.40;100.00;60209.53;4860661;29;20033;-93
2022/11/08 03:53:55;;;;;;;15.50;2.58;;;;;;;-144.40;100.00;60209.53;4861160;29;20026;-94
2022/11/08 03:56:21;;;;;;;28.20;3.80;;;;;;;-144.40;100.00;60209.53;4860705;29;20030;-94
2022/11/08 03:58:46;;;;;;;22.17;3.08;;;;;;;-144.40;100.00;60209.53;4861150;29;20026;-93
2022/11/08 04:01:12;;;;;;;22.13;3.38;;;;;;;-144.40;100.00;60209.53;4860674;29;20044;-92
2022/11/08 04:03:37;;;;;;;23.55;3.50;;;;;;;-144.40;100.00;60209.53;4860843;29;20116;-94
2022/11/08 04:06:03;;;;;;;25.05;2.90;;;;;;;-144.40;100.00;60209.53;4860735;29;20026;-94
2022/11/08 04:08:29;;;;;;;22.52;3.95;;;;;;;-144.40;100.00;60209.53;4861199;29;20029;-95
2022/11/08 04:15:13;;;;;;;20.52;3.58;;;;;;;-144.40;100.00;60209.53;4860958;29;20149;-95
2022/11/08 04:16:32;;;;;;;29.85;4.75;;;;;;;-144.40;100.00;60209.53;4861467;29;20085;-94
2022/11/08 04:21:45;;;;;;;25.73;3.22;;;;;;;-144.40;100.00;60209.53;4862694;29;20056;-95
2022/11/08 04:24:11;;;;;;;22.77;3.72;;;;;;;-144.40;100.00;60209.53;4860666;29;20569;-95
2022/11/08 04:26:39;;;;;;;22.15;3.47;;;;;;;-144.40;100.00;60209.53;4861052;29;20116;-95
2022/11/08 04:29:04;;;;;;;31.63;4.30;;;;;;;-144.40;100.00;60209.53;4860623;29;20029;-96
2022/11/08 04:31:30;;;;;;;33.20;3.30;;;;;;;-144.40;100.00;60209.53;4860101;29;20128;-95
2022/11/08 04:33:56;;;;;;;26.25;3.83;;;;;;;-144.40;100.00;60209.53;4860724;29;20118;-95
2022/11/08 04:36:21;;;;;;;16.67;3.00;;;;;;;-144.40;100.00;60209.53;4861299;29;20033;-95
2022/11/08 04:38:51;;;;;;;25.92;4.15;;;;;;;-144.40;100.00;60209.53;4861360;29;20396;-95
2022/11/08 04:41:19;;;;;;;24.88;4.10;;;;;;;-144.40;100.00;60209.53;4860862;29;20045;-95
2022/11/08 04:43:45;;;;;;;18.38;2.90;;;;;;;-144.40;100.00;60209.53;4861369;29;20462;-96
2022/11/08 04:46:14;;;;;;;30.92;4.55;;;;;;;-144.40;100.00;60209.53;4860969;29;20053;-95
2022/11/08 04:48:41;;;;;;;23.17;3.55;;;;;;;-144.40;100.00;60209.53;4860881;29;20044;-95
2022/11/08 04:51:12;;;;;;;31.65;3.03;;;;;;;-144.40;100.00;60209.53;4859838;29;20492;-96
2022/11/08 04:53:37;;;;;;;18.63;2.47;;;;;;;-144.40;100.00;60209.53;4860815;29;20056;-94
2022/11/08 04:56:08;;;;;;;15.05;3.25;;;;;;;-144.40;100.00;60209.53;4858898;29;20497;-94
2022/11/08 04:58:36;;;;;;;19.83;2.60;;;;;;;-144.40;100.00;60209.53;4860322;29;20401;-95
2022/11/08 05:01:04;;;;;;;20.33;2.42;;;;;;;-144.40;100.00;60209.53;4860184;29;20025;-94
2022/11/08 05:03:30;;;;;;;21.23;3.35;;;;;;;-144.40;100.00;60209.53;4860208;29;20034;-95
2022/11/08 05:06:00;;;;;;;23.20;2.90;;;;;;;-144.40;100.00;60209.53;4860440;29;20121;-96
2022/11/08 05:08:26;;;;;;;23.58;3.75;;;;;;;-144.40;100.00;60209.53;4860047;29;20532;-96
2022/11/08 05:10:51;;;;;;;26.45;3.10;;;;;;;-144.40;100.00;60209.53;4860202;29;20069;-96
2022/11/08 05:13:17;;;;;;;24.23;3.13;;;;;;;-144.40;100.00;60209.53;4861373;29;20473;-96
2022/11/08 05:15:42;;;;;;;20.15;3.20;;;;;;;-144.40;100.00;60209.53;4860111;29;20504;-95
2022/11/08 05:18:08;;;;;;;22.25;2.83;;;;;;;-144.40;100.00;60209.53;4861160;29;20034;-96
2022/11/08 05:23:23;;;;;;;22.55;2.70;;;;;;;-144.40;100.00;60209.53;4862633;29;20049;-96
2022/11/08 05:25:49;;;;;;;21.48;2.65;;;;;;;-144.40;100.00;60209.53;4861213;29;20040;-96
2022/11/08 05:28:15;;;;;;;18.27;2.50;;;;;;;-144.40;100.00;60209.53;4860440;29;20491;-96
2022/11/08 05:30:41;;;;;;;14.18;2.92;;;;;;;-144.40;100.00;60209.53;4860210;29;20100;-96
2022/11/08 05:33:07;;;;;;;21.58;3.88;;;;;;;-144.40;100.00;60209.53;4860748;29;20025;-95
2022/11/08 05:35:33;;;;;;;17.10;2.97;;;;;;;-144.40;100.00;60209.53;4856091;29;20038;-95
2022/11/08 05:37:59;;;;;;;25.58;3.78;;;;;;;-144.40;100.00;60209.53;4859826;29;20029;-96
2022/11/08 05:40:24;;;;;;;19.90;2.70;;;;;;;-144.40;100.00;60209.53;4859899;29;20036;-95
2022/11/08 05:42:53;;;;;;;19.02;3.10;;;;;;;-144.40;100.00;60209.53;4859649;29;20480;-95
2022/11/08 05:45:19;;;;;;;17.92;3.30;;;;;;;-144.40;100.00;60209.53;4860031;29;20036;-95
2022/11/08 05:47:44;;;;;;;25.13;2.88;;;;;;;-144.40;100.00;60209.53;4860930;29;20029;-95
2022/11/08 05:50:11;;;;;;;19.63;2.80;;;;;;;-144.40;100.00;60209.53;4860001;29;20033;-96
2022/11/08 05:52:36;;;;;;;17.15;2.42;;;;;;;-144.40;100.00;60209.53;4842145;29;20507;-96
2022/11/08 05:55:02;;;;;;;16.85;3.28;;;;;;;-144.40;100.00;60209.53;4841494;29;20128;-95
2022/11/08 05:57:27;;;;;;;22.60;3.70;;;;;;;-144.40;100.00;60209.53;4845323;29;20030;-96
2022/11/08 05:59:53;;;;;;;16.02;2.60;;;;;;;-144.40;100.00;60209.53;4845373;29;20022;-94
2022/11/08 06:02:18;;;;;;;15.10;2.95;;;;;;;-144.40;100.00;60209.53;4845042;29;20026;-95
2022/11/08 06:04:44;;;;;;;22.10;2.65;;;;;;;-144.40;100.00;60209.53;4845089;29;20472;-95
2022/11/08 06:07:10;;;;;;;29.00;3.15;;;;;;;-144.40;100.00;60209.53;4860399;29;20037;-95
2022/11/08 06:09:35;;;;;;;21.92;2.75;;;;;;;-144.40;100.00;60209.53;4862912;29;20036;-94
2022/11/08 06:12:01;;;;;;;28.02;3.92;;;;;;;-144.40;100.00;60209.53;4863674;29;20053;-94
2022/11/08 06:14:26;;;;;;;30.55;4.65;;;;;;;-144.40;100.00;60209.53;4863081;29;20405;-94
2022/11/08 06:16:52;;;;;;;29.15;3.80;;;;;;;-144.40;100.00;60209.53;4863061;29;20037;-95
2022/11/08 06:19:17;;;;;;;23.58;3.90;;;;;;;-144.40;100.00;60209.53;4864514;29;20029;-96
2022/11/08 06:26:50;;;;;;;23.23;3.53;;;;;;;-144.40;100.00;60209.53;4864809;29;20053;-96
2022/11/08 06:29:19;;;;;;;30.77;3.63;;;;;;;-144.40;100.00;60209.53;4864285;29;20355;-96
2022/11/08 06:32:01;;;;;;;28.20;3.92;;;;;;;-144.40;100.00;60209.53;4871185;29;20030;-96
2022/11/08 06:34:29;;;;;;;31.50;5.15;;;;;;;-144.40;100.00;60209.53;4870455;29;20030;-96
2022/11/08 06:37:03;;;;;;;28.55;4.28;;;;;;;-144.40;100.00;60209.53;4872523;29;20124;-96
2022/11/08 06:40:07;;;;;;;28.35;3.80;;;;;;;-144.40;100.00;60209.53;4870860;29;20034;-96
2022/11/08 06:50:11;;;;;;;31.10;4.63;;;;;;;-144.40;100.00;60209.53;4860488;29;20096;-96
2022/11/08 06:52:36;;;;;;;28.67;5.38;;;;;;;-144.40;100.00;60209.53;4864194;29;20026;-94
2022/11/08 06:55:02;;;;;;;39.92;5.57;;;;;;;-144.40;100.00;60209.53;4869281;29;20037;-92
2022/11/08 06:57:28;;;;;;;45.05;6.72;;;;;;;-144.40;100.00;60209.53;4860871;29;20037;-95
2022/11/08 06:59:53;;;;;;;38.63;4.35;;;;;;;-144.40;100.00;60209.53;4859907;29;20030;-93
2022/11/08 07:02:19;;;;;;;43.25;6.00;;;;;;;-144.40;100.00;60209.53;4859439;29;20040;-94
2022/11/08 07:04:44;;;;;;;53.50;7.05;;;;;;;-144.40;100.00;60209.53;4876609;29;20044;-94
2022/11/08 07:07:10;;;;;;;51.80;6.40;;;;;;;-144.40;100.00;60209.53;4860952;29;20120;-93
2022/11/08 07:09:35;;;;;;;43.22;5.90;;;;;;;-144.40;100.00;60209.53;4876411;29;20481;-93
2022/11/08 07:12:01;;;;;;;56.17;6.75;;;;;;;-144.40;100.00;60209.53;4853134;29;20030;-93
2022/11/08 07:14:26;;;;;;;44.72;5.78;;;;;;;-144.40;100.00;60209.53;4842816;29;20033;-94
2022/11/08 07:16:52;;;;;;;46.35;7.15;;;;;;;-144.40;100.00;60209.53;4873133;29;20084;-94
2022/11/08 07:19:17;;;;;;;44.47;6.47;;;;;;;-144.40;100.00;60209.53;4873406;29;20041;-95
2022/11/08 07:21:43;;;;;;;54.63;6.82;;;;;;;-144.40;100.00;60209.53;4861719;29;20064;-95
2022/11/08 07:24:08;;;;;;;50.60;7.43;;;;;;;-144.40;100.00;60209.53;4860936;29;20124;-93
2022/11/08 07:26:34;;;;;;;56.08;7.00;;;;;;;-144.40;100.00;60209.53;4861361;29;20040;-93
2022/11/08 07:28:59;;;;;;;55.22;7.47;;;;;;;-144.40;100.00;60209.53;4860022;29;20189;-94
2022/11/08 07:31:25;;;;;;;41.13;5.85;;;;;;;-144.40;100.00;60209.53;4862055;29;20059;-94
2022/11/08 07:33:50;;;;;;;52.92;5.80;;;;;;;-144.40;100.00;60209.53;4861788;29;20111;-94
2022/11/08 07:36:16;;;;;;;48.45;5.97;;;;;;;-144.40;100.00;60209.53;4860723;29;20041;-95
2022/11/08 07:38:41;;;;;;;30.17;5.20;;;;;;;-144.40;100.00;60209.53;4858903;29;20107;-93
2022/11/08 07:41:08;;;;;;;30.65;4.72;;;;;;;-144.40;100.00;60209.53;4856123;29;20477;-94
2022/11/08 07:43:33;;;;;;;36.75;5.18;;;;;;;-144.40;100.00;60209.53;4858845;29;20033;-94
2022/11/08 07:46:00;;;;;;;43.78;5.85;;;;;;;-144.40;100.00;60209.53;4859472;29;20029;-94
2022/11/08 07:48:28;;;;;;;35.22;3.95;;;;;;;-144.40;100.00;60209.53;4854787;29;20061;-93
2022/11/08 07:50:54;;;;;;;37.63;4.68;;;;;;;-144.40;100.00;60209.53;4852007;29;20040;-93
2022/11/08 07:53:20;;;;;;;26.60;3.88;;;;;;;-144.40;100.00;60209.53;4859372;29;20041;-94
2022/11/08 07:55:46;;;;;;;22.50;3.28;;;;;;;-144.40;100.00;60209.53;4857084;29;20033;-92
2022/11/08 07:58:13;;;;;;;27.10;4.53;;;;;;;-144.40;100.00;60209.53;4858084;29;20120;-94
2022/11/08 08:00:40;;;;;;;27.63;4.20;;;;;;;-144.40;100.00;60209.53;4859317;29;20026;-94
2022/11/08 08:03:08;;;;;;;31.75;4.70;;;;;;;-144.40;100.00;60209.53;4856929;29;20397;-94
2022/11/08 08:05:52;;;;;;;25.00;3.35;;;;;;;-144.40;100.00;60209.53;4856350;29;20124;-95
2022/11/08 08:08:18;;;;;;;20.40;3.35;;;;;;;-144.40;100.00;60209.53;4871395;29;20041;-93
2022/11/08 08:10:44;;;;;;;20.80;2.90;;;;;;;-144.40;100.00;60209.53;4839167;29;20034;-93
2022/11/08 08:13:10;;;;;;;19.35;2.30;;;;;;;-144.40;100.00;60209.53;4838519;29;20035;-92
2022/11/08 08:15:35;;;;;;;19.55;2.60;;;;;;;-144.40;100.00;60209.53;4840358;29;20061;-94
2022/11/08 08:18:03;;;;;;;17.42;2.30;;;;;;;-144.40;100.00;60209.53;4841598;29;20126;-93
2022/11/08 08:20:30;;;;;;;24.27;3.15;;;;;;;-144.40;100.00;60209.53;4871619;29;20392;-95
2022/11/08 08:22:57;;;;;;;24.88;4.30;;;;;;;-144.40;100.00;60209.53;4860510;29;20048;-94
2022/11/08 08:25:22;;;;;;;23.50;2.65;;;;;;;-144.40;100.00;60209.53;4860221;29;20041;-93
2022/11/08 08:27:49;;;;;;;23.50;2.60;;;;;;;-144.40;100.00;60209.53;4859981;29;20037;-94
2022/11/08 08:30:16;;;;;;;21.15;2.65;;;;;;;-144.40;100.00;60209.53;4852056;29;20477;-92
2022/11/08 08:32:42;;;;;;;19.98;2.83;;;;;;;-144.40;100.00;60209.53;4860171;29;20033;-94
2022/11/08 08:35:08;;;;;;;24.52;3.50;;;;;;;-144.40;100.00;60209.53;4859429;29;20025;-94
2022/11/08 08:37:34;;;;;;;22.80;3.72;;;;;;;-144.40;100.00;60209.53;4859087;29;20033;-96
2022/11/08 08:39:59;;;;;;;30.30;3.17;;;;;;;-144.40;100.00;60209.53;4871156;29;20026;-94
2022/11/08 08:42:24;;;;;;;38.33;3.13;;;;;;;-144.40;100.00;60209.53;4874550;29;20048;-93
2022/11/08 08:44:50;;;;;;;31.30;3.72;;;;;;;-144.40;100.00;60209.53;4859487;29;20129;-95
2022/11/08 08:47:15;;;;;;;28.90;3.85;;;;;;;-144.40;100.00;60209.53;4860000;29;20082;-96
2022/11/08 08:49:41;;;;;;;29.83;4.45;;;;;;;-144.40;100.00;60209.53;4858878;29;20029;-94
2022/11/08 08:52:07;;;;;;;34.83;2.80;;;;;;;-144.40;100.00;60209.53;4859422;29;20441;-94
2022/11/08 08:54:32;;;;;;;36.90;3.30;;;;;;;-144.40;100.00;60209.53;4858457;29;20511;-95
2022/11/08 08:56:58;;;;;;;31.08;4.10;;;;;;;-144.40;100.00;60209.53;4858838;29;20040;-94
2022/11/08 08:59:23;;;;;;;37.40;3.83;;;;;;;-144.40;100.00;60209.53;4873928;29;20056;-93
2022/11/08 09:01:49;;;;;;;49.85;4.60;;;;;;;-144.40;100.00;60209.53;4840394;29;20030;-93
2022/11/08 09:04:14;;;;;;;36.08;5.43;;;;;;;-144.40;100.00;60209.53;4848756;29;20029;-94
2022/11/08 09:06:40;;;;;;;37.88;5.68;;;;;;;-144.40;100.00;60209.53;4854848;29;20034;-93
2022/11/08 09:09:06;;;;;;;46.55;5.30;;;;;;;-144.40;100.00;60209.53;4856698;29;20449;-93
2022/11/08 09:11:31;;;;;;;36.05;5.13;;;;;;;-144.40;100.00;60209.53;4858739;29;20044;-92
2022/11/08 09:13:57;;;;;;;31.45;4.30;;;;;;;-144.40;100.00;60209.53;4846980;29;20113;-93
2022/11/08 09:16:22;;;;;;;36.38;4.47;;;;;;;-144.40;100.00;60209.53;4840698;29;20095;-93
2022/11/08 09:18:48;;;;;;;43.97;4.80;;;;;;;-144.40;100.00;60209.53;4841809;29;20037;-91
2022/11/08 09:21:13;;;;;;;37.85;5.65;;;;;;;-144.40;100.00;60209.53;4840658;29;20026;-91
2022/11/08 09:23:41;;;;;;;43.15;5.97;;;;;;;-144.40;100.00;60209.53;4850401;29;20092;-92
2022/11/08 09:26:06;;;;;;;40.25;5.55;;;;;;;-144.40;100.00;60209.53;4859242;29;20105;-92
2022/11/08 09:28:35;;;;;;;38.45;5.47;;;;;;;-144.40;100.00;60209.53;4858622;29;20096;-91
2022/11/08 09:31:09;;;;;;;28.48;4.45;;;;;;;-144.40;100.00;60209.53;4861813;29;20036;-91
2022/11/08 09:33:36;;;;;;;36.20;5.13;;;;;;;-144.40;100.00;60209.53;4864986;29;20037;-92
2022/11/08 09:36:03;;;;;;;31.52;5.10;;;;;;;-144.40;100.00;60209.53;4863404;29;20516;-93
2022/11/08 09:38:29;;;;;;;30.15;3.80;;;;;;;-144.40;100.00;60209.53;4861423;29;20136;-93
2022/11/08 09:41:23;;;;;;;27.17;4.70;;;;;;;-144.40;100.00;60209.53;4862867;29;20120;-91
2022/11/08 09:44:13;;;;;;;27.95;3.10;;;;;;;-144.40;100.00;60209.53;4863490;29;20048;-94
2022/11/08 09:46:47;;;;;;;33.80;4.35;;;;;;;-144.40;100.00;60209.53;4862719;29;20102;-93
2022/11/08 09:49:19;;;;;;;27.58;4.63;;;;;;;-144.40;100.00;60209.53;4862417;29;20037;-93
2022/11/08 09:51:45;;;;;;;39.50;6.30;;;;;;;-144.40;100.00;60209.53;4862616;29;20029;-93
2022/11/08 09:54:22;;;;;;;34.35;4.70;;;;;;;-144.40;100.00;60209.53;4862144;29;20033;-92
2022/11/08 09:56:51;;;;;;;38.90;5.85;;;;;;;-144.40;100.00;60209.53;4866421;29;20030;-94
2022/11/08 09:59:42;;;;;;;33.60;4.05;;;;;;;-144.40;100.00;60209.53;4865051;29;20492;-93
2022/11/08 10:02:16;;;;;;;28.45;4.38;;;;;;;-144.40;100.00;60209.53;4866110;29;20093;-93
2022/11/08 10:04:46;;;;;;;34.75;5.35;;;;;;;-144.40;100.00;60209.53;4865439;29;20034;-93
2022/11/08 10:07:41;;;;;;;33.75;5.18;;;;;;;-144.40;100.00;60209.53;4865239;29;20089;-93
2022/11/08 10:10:13;;;;;;;47.00;6.72;;;;;;;-144.40;100.00;60209.53;4860278;29;20056;-93
2022/11/08 10:13:18;;;;;;;24.15;3.95;;;;;;;-144.40;100.00;60209.53;4850151;29;20124;-93
2022/11/08 10:16:04;;;;;;;38.05;6.18;;;;;;;-144.40;100.00;60209.53;4855288;29;20044;-93
2022/11/08 10:18:56;;;;;;;37.80;6.25;;;;;;;-144.40;100.00;60209.53;4862085;29;20041;-93
2022/11/08 10:21:53;;;;;;;30.48;4.60;;;;;;;-144.40;100.00;60209.53;4862675;29;20041;-93
2022/11/08 10:24:38;;;;;;;33.08;3.47;;;;;;;-144.40;100.00;60209.53;4861935;29;20037;-93
2022/11/08 10:27:13;;;;;;;58.58;5.22;;;;;;;-144.40;100.00;60209.53;4862363;29;20173;-93
2022/11/08 10:29:42;;;;;;;54.70;6.20;;;;;;;-144.40;100.00;60209.53;4858864;29;20363;-93
2022/11/08 10:32:20;;;;;;;13.43;1.65;;;;;;;-144.40;100.00;60209.53;4858578;29;20026;-92
2022/11/08 10:34:57;;;;;;;5.22;0.85;;;;;;;-144.40;100.00;60209.53;4843707;29;20038;-93
2022/11/08 10:37:24;;;;;;;6.07;0.85;;;;;;;-144.40;100.00;60209.53;4860481;29;20037;-93
2022/11/08 10:39:59;;;;;;;5.68;0.63;;;;;;;-144.40;100.00;60209.53;4863256;29;20041;-93
2022/11/08 10:42:40;;;;;;;10.13;1.73;;;;;;;-144.40;100.00;60209.53;4861562;29;20037;-94
2022/11/08 10:45:08;;;;;;;8.20;1.08;;;;;;;-144.40;100.00;60209.53;4861920;29;20032;-92
2022/11/08 10:47:34;;;;;;;15.30;2.25;;;;;;;-144.40;100.00;60209.53;4843883;29;20113;-92
2022/11/08 10:49:59;;;;;;;13.65;1.80;;;;;;;-144.40;100.00;60209.53;4862168;29;20034;-93
2022/11/08 10:52:35;;;;;;;11.60;2.10;;;;;;;-144.40;100.00;60209.53;4860148;29;20025;-92
2022/11/08 10:55:06;;;;;;;7.75;1.45;;;;;;;-144.40;100.00;60209.53;4859709;29;20132;-93
2022/11/08 10:57:31;;;;;;;19.85;3.58;;;;;;;-144.40;100.00;60209.53;4860693;29;20052;-93
2022/11/08 11:00:16;;;;;;;17.90;2.20;;;;;;;-144.40;100.00;60209.53;4861049;29;20483;-93
2022/11/08 11:02:42;;;;;;;19.58;2.80;;;;;;;-144.40;100.00;60209.53;4862629;29;20033;-92
2022/11/08 11:05:36;;;;;;;28.92;3.60;;;;;;;-144.40;100.00;60209.53;4869004;29;20060;-94
2022/11/08 11:08:07;;;;;;;28.23;3.45;;;;;;;-144.40;100.00;60209.53;4858077;29;20045;-94
2022/11/08 11:10:35;;;;;;;28.60;2.90;;;;;;;-144.40;100.00;60209.53;4855942;29;20093;-92
2022/11/08 11:13:20;;;;;;;28.15;3.83;;;;;;;-144.40;100.00;60209.53;4854978;29;20041;-94
2022/11/08 11:15:55;;;;;;;22.00;3.15;;;;;;;-144.40;100.00;60209.53;4858048;29;20085;-94
2022/11/08 11:18:31;;;;;;;18.80;3.63;;;;;;;-144.40;100.00;60209.53;4859597;29;20037;-93
2022/11/08 11:21:15;;;;;;;16.35;2.67;;;;;;;-144.40;100.00;60209.53;4861660;29;20481;-93
2022/11/08 11:23:55;;;;;;;21.48;2.95;;;;;;;-144.40;100.00;60209.53;4876360;29;20032;-93
2022/11/08 11:26:33;;;;;;;28.65;3.00;;;;;;;-144.40;100.00;60209.53;4861682;29;20488;-93
2022/11/08 11:29:14;;;;;;;20.50;4.25;;;;;;;-144.40;100.00;60209.53;4875814;29;20030;-93
2022/11/08 11:31:42;;;;;;;15.55;2.50;;;;;;;-144.40;100.00;60209.53;4875399;29;20033;-94
2022/11/08 11:34:17;;;;;;;12.45;2.20;;;;;;;-144.40;100.00;60209.53;4858981;29;20507;-93
2022/11/08 11:36:53;;;;;;;16.52;2.53;;;;;;;-144.40;100.00;60209.53;4861499;29;20481;-93
2022/11/08 11:39:31;;;;;;;13.00;2.53;;;;;;;-144.40;100.00;60209.53;4859826;29;20021;-93
2022/11/08 11:42:18;;;;;;;11.02;1.92;;;;;;;-144.40;100.00;60209.53;4875431;29;20026;-93